METAR AND TAF INFORMATION
METAR FOR LTFJ
ADDS - METARS form results

(1735 UTC 23 February 2019)
Data provider http://aviationweather.gov/metar/data/
 
METAR text: LTFJ 231720Z 02018KT 2900 -SHSN BKN007 BKN020 00/M00 Q1029 BECMG TL1750 4000 NSW
Conditions at: LTFJ (SABIHA GOKCEN , TR) observed 1720 UTC 23 February 2019
Temperature: 0.0°C (32°F)
Dewpoint: 0.0°C (32°F) [RH = 100%]
Pressure (altimeter): 30.38 inches Hg (1029.0 mb)
Winds: from the NNE (20 degrees) at 21 MPH (18 knots; 9.3 m/s)
Visibility: 1.80 miles (2.90 km)
Ceiling: 700 feet AGL
Clouds: broken clouds at 700 feet AGL
broken clouds at 2000 feet AGL
Weather: -SHSN  (light snow showers)

METAR text: LTFJ 231650Z 02021KT 2500 SN BKN007 BKN020 00/M00 Q1029 BECMG TL1750 4000 NSW
Conditions at: LTFJ (SABIHA GOKCEN , TR) observed 1650 UTC 23 February 2019
Temperature: 0.0°C (32°F)
Dewpoint: 0.0°C (32°F) [RH = 100%]
Pressure (altimeter): 30.38 inches Hg (1029.0 mb)
Winds: from the NNE (20 degrees) at 24 MPH (21 knots; 10.8 m/s)
Visibility: 1.55 miles (2.49 km)
Ceiling: 700 feet AGL
Clouds: broken clouds at 700 feet AGL
broken clouds at 2000 feet AGL
Weather: SN  (moderate snow)

Forecast for: LTFJ (SABIHA GOKCEN , TR)
Text: TAF LTFJ 231640Z 2318/2418 03018G30KT 4000 -SN BKN007 BKN020
Forecast period: 1800 UTC 23 February 2019 to 1800 UTC 24 February 2019
Forecast type: FROM: standard forecast or significant change
Winds: from the NNE (30 degrees) at 21 MPH (18 knots; 9.3 m/s)
gusting to 34 MPH (30 knots; 15.4 m/s)
Visibility: 2.49 miles (4.01 km)
Ceiling: 700 feet AGL
Clouds: broken clouds at 700 feet AGL
broken clouds at 2000 feet AGL
Weather: -SN  (light snow)
Text: TEMPO 2319/2323 2000 SN
Forecast period: 1900 to 2300 UTC 23 February 2019
Forecast type: TEMPORARY: The following changes expected for less than half the time period
Visibility: 1.24 miles (2.00 km)
Ceiling: unknown
Clouds: missing
Weather: SN  (moderate snow)
Text: PROB40
Forecast period: 0500 to 0900 UTC 24 February 2019
Forecast type: TEMPORARY: The following changes expected for less than half the time period
Visibility: 1.24 miles (2.00 km)
Ceiling: unknown
Clouds: missing
Weather: SN  (moderate snow)

 AIRPORT MAP

 RUNWAY INFORMATION
Runway 06 Runway length 9843 ft Runway width 148 ft
Runway elevation 293 ft Runway displaced threshold 0 ft Runway heading 64
Runway 24 Runway length 9843 ft Runway width 148 ft
Runway elevation 304 ft Runway displaced threshold 0 ft Runway heading 244

 AIRPORT FREQUENCIES
Type ATIS Name ATIS Frequency 128.55 MHZ
Type GND Name GND Frequency 121.75 MHZ
Type TWR Name TWR Frequency 37.877 MHZ
Type TWR Name TWR Frequency 118.8 MHZ

 AIRPORT NEAR NAVIGATION AIDS
Type NDB Name Sabiha Gokcen Frequency 347 KHZ
Type VOR-DME Name Sabiha Gokcen Frequency 108800 KHZ



Copyright © 2011 - 2018 BirgenAir Virtual Airlines. All rights reserved. Developed by Goktug Unver